Naestved, Denmark
Current Conditions -  °F | °C
As of 9:20 AM on Saturday 20 Dec 2014 (Local Time) from EKRK Reporting Station
Broken Clouds Broken Clouds  
Wind Chill: 26°   Ceiling: 14000
Heat Index: 36°   Visibility: 6mi
Dew Point: 34°   Wind: 15mph
Humidity: 93%   Direction: 250°WSW
Pressure: 29.44"   Gusts: NA
Location:  55.23°N, 11.76°E
Report Text: EKRK 200820Z AUTO 25013KT 9999NDV FEW016/// SCT130///BKN140/// 02/01 Q0997
Loading
Personal Weather Stations






























Interactive Weather Map New forecast layout! Learn more

10-Day Weather Forecast

Advertisements
Track Severe Weather on mobile